createdAt,value
2018-04-11T00:00:01.820Z,69.60
2018-04-11T00:02:29.486Z,69.37
2018-04-11T00:04:57.125Z,70.41
2018-04-11T00:07:24.834Z,71.29
2018-04-11T00:09:52.441Z,70.21
2018-04-11T00:12:20.037Z,71.06
2018-04-11T00:14:47.726Z,70.99
2018-04-11T00:17:15.428Z,71.39
2018-04-11T00:19:43.052Z,70.88
2018-04-11T00:22:10.707Z,70.09
2018-04-11T00:24:38.367Z,71.50
2018-04-11T00:27:05.936Z,72.08
2018-04-11T00:29:33.564Z,72.39
2018-04-11T00:32:02.311Z,72.37
2018-04-11T00:34:30.075Z,73.09
2018-04-11T00:36:57.684Z,73.11
2018-04-11T00:39:25.297Z,73.78
2018-04-11T00:41:52.941Z,73.84
2018-04-11T00:44:20.568Z,73.61
2018-04-11T00:46:48.345Z,73.88
2018-04-11T00:49:15.956Z,74.37
2018-04-11T00:51:43.638Z,74.85
2018-04-11T00:54:11.228Z,75.54
2018-04-11T00:56:38.848Z,75.29
2018-04-11T00:59:06.446Z,74.34
2018-04-11T01:01:34.274Z,75.49
2018-04-11T01:04:01.899Z,74.67
2018-04-11T01:06:29.569Z,74.13
2018-04-11T01:08:57.213Z,74.73
2018-04-11T01:11:24.864Z,74.75
2018-04-11T01:13:52.490Z,74.68
2018-04-11T01:16:20.131Z,75.02
2018-04-11T01:18:47.841Z,75.52
2018-04-11T01:21:15.429Z,76.80
2018-04-11T01:23:43.092Z,75.54
2018-04-11T01:26:10.765Z,75.43
2018-04-11T01:28:38.345Z,75.14
2018-04-11T01:31:06.013Z,75.48
2018-04-11T01:33:33.703Z,75.72
2018-04-11T01:36:01.289Z,76.79
2018-04-11T01:38:28.964Z,75.52
2018-04-11T01:40:56.609Z,75.87
2018-04-11T01:43:24.319Z,76.02
2018-04-11T01:45:52.023Z,76.19
2018-04-11T01:48:19.693Z,76.39
2018-04-11T01:50:47.329Z,75.64
2018-04-11T01:53:14.951Z,76.33
2018-04-11T01:55:42.677Z,75.70
2018-04-11T01:58:10.341Z,75.89
2018-04-11T02:00:38.001Z,76.64
2018-04-11T02:03:05.664Z,76.51
2018-04-11T02:05:33.237Z,76.47
2018-04-11T02:08:00.900Z,76.79
2018-04-11T02:10:28.538Z,76.24
2018-04-11T02:12:56.548Z,76.78
2018-04-11T02:15:24.194Z,77.17
2018-04-11T02:17:51.766Z,76.90
2018-04-11T02:20:19.391Z,77.12
2018-04-11T02:22:48.292Z,76.60
2018-04-11T02:25:16.026Z,77.17
2018-04-11T02:27:43.609Z,77.58
2018-04-11T02:30:11.271Z,77.42
2018-04-11T02:32:39.049Z,77.46
2018-04-11T02:35:06.680Z,77.99
2018-04-11T02:37:34.337Z,78.08
2018-04-11T02:40:01.968Z,76.91
2018-04-11T02:42:30.465Z,76.81
2018-04-11T02:44:59.551Z,76.88
2018-04-11T02:47:27.354Z,77.38
2018-04-11T02:49:55.987Z,77.58
2018-04-11T02:52:24.769Z,77.49
2018-04-11T02:54:53.430Z,77.69
2018-04-11T02:57:21.993Z,78.52
2018-04-11T02:59:50.309Z,77.16
2018-04-11T03:02:20.551Z,76.78
2018-04-11T03:04:50.186Z,76.97
2018-04-11T03:07:19.155Z,79.09
2018-04-11T03:09:49.516Z,79.41
2018-04-11T03:12:18.327Z,78.99
2018-04-11T03:14:48.158Z,79.45
2018-04-11T03:17:25.915Z,79.54
2018-04-11T03:19:56.442Z,79.70
2018-04-11T03:22:35.224Z,79.95
2018-04-11T03:25:06.022Z,80.35
2018-04-11T03:27:34.889Z,80.88
2018-04-11T03:30:02.962Z,81.12
2018-04-11T03:32:32.600Z,80.17
2018-04-11T03:35:00.958Z,79.54
2018-04-11T03:37:35.544Z,79.87
2018-04-11T03:40:03.251Z,80.51
2018-04-11T03:42:30.900Z,80.35
2018-04-11T03:44:58.485Z,80.58
2018-04-11T03:47:26.293Z,80.96
2018-04-11T03:49:53.885Z,79.81
2018-04-11T03:52:21.512Z,79.10
2018-04-11T03:54:49.227Z,79.33
2018-04-11T03:57:16.854Z,79.31
2018-04-11T03:59:44.556Z,80.94
2018-04-11T04:02:12.206Z,81.73
2018-04-11T04:04:40.674Z,81.86
2018-04-11T04:07:08.356Z,81.82
2018-04-11T04:09:35.972Z,81.69
2018-04-11T04:12:03.659Z,82.14
2018-04-11T04:14:43.041Z,82.19
2018-04-11T04:17:22.308Z,81.71
2018-04-11T04:20:01.608Z,81.05
2018-04-11T04:22:29.310Z,80.38
2018-04-11T04:24:56.904Z,79.99
2018-04-11T04:27:24.591Z,80.49
2018-04-11T04:29:52.371Z,81.22
2018-04-11T04:32:20.018Z,81.58
2018-04-11T04:34:47.653Z,81.96
2018-04-11T04:37:15.253Z,81.58
2018-04-11T04:39:42.907Z,81.11
2018-04-11T04:42:10.509Z,82.21
2018-04-11T04:44:38.155Z,82.17
2018-04-11T04:47:06.563Z,81.17
2018-04-11T04:49:34.226Z,80.84
2018-04-11T04:52:01.927Z,80.99
2018-04-11T04:54:29.611Z,81.55
2018-04-11T04:56:57.335Z,81.91
2018-04-11T04:59:24.930Z,81.12
2018-04-11T05:01:52.608Z,81.41
2018-04-11T05:04:20.467Z,81.31
2018-04-11T05:06:48.059Z,81.36
2018-04-11T05:09:15.827Z,81.51
2018-04-11T05:11:43.424Z,79.87
2018-04-11T05:14:11.130Z,80.26
2018-04-11T05:16:38.731Z,67.76
2018-04-11T05:19:06.407Z,59.93
2018-04-11T05:21:34.154Z,55.53
2018-04-11T05:24:01.839Z,53.04
2018-04-11T05:26:29.563Z,52.45
2018-04-11T05:28:57.167Z,55.84
2018-04-11T05:31:24.827Z,61.67
2018-04-11T05:33:52.449Z,65.41
2018-04-11T05:36:20.147Z,66.28
2018-04-11T05:38:47.807Z,68.96
2018-04-11T05:41:16.134Z,70.00
2018-04-11T05:43:43.751Z,69.52
2018-04-11T05:46:11.381Z,70.66
2018-04-11T05:48:39.000Z,70.06
2018-04-11T05:51:06.705Z,69.57
2018-04-11T05:53:34.317Z,68.45
2018-04-11T05:56:02.023Z,67.87
2018-04-11T05:58:29.750Z,67.70
2018-04-11T06:00:57.381Z,67.19
2018-04-11T06:03:25.065Z,66.51
2018-04-11T06:05:52.754Z,65.74
2018-04-11T06:08:20.374Z,65.57
2018-04-11T06:10:48.042Z,63.70
2018-04-11T06:13:15.684Z,65.78
2018-04-11T06:15:43.361Z,64.96
2018-04-11T06:18:11.008Z,64.01
2018-04-11T06:20:39.226Z,63.76
2018-04-11T06:23:07.860Z,63.76
2018-04-11T06:25:35.479Z,61.41
2018-04-11T06:28:03.174Z,61.03
2018-04-11T06:30:30.852Z,61.31
2018-04-11T06:32:58.547Z,61.08
2018-04-11T06:35:27.350Z,61.24
2018-04-11T06:37:55.047Z,59.67
2018-04-11T06:40:22.677Z,58.57
2018-04-11T06:42:50.346Z,58.78
2018-04-11T06:45:17.967Z,58.06
2018-04-11T06:47:45.612Z,57.87
2018-04-11T06:50:13.302Z,57.90
2018-04-11T06:52:40.962Z,57.75
2018-04-11T06:55:08.742Z,56.49
2018-04-11T06:57:36.424Z,55.28
2018-04-11T07:00:04.081Z,56.47
2018-04-11T07:02:31.793Z,55.47
2018-04-11T07:04:59.486Z,54.79
2018-04-11T07:07:27.259Z,54.74
2018-04-11T07:09:54.951Z,54.73
2018-04-11T07:12:22.558Z,55.63
2018-04-11T07:14:50.224Z,54.99
2018-04-11T07:17:17.883Z,53.61
2018-04-11T07:19:45.949Z,55.05
2018-04-11T07:22:13.568Z,55.75
2018-04-11T07:24:41.710Z,55.78
2018-04-11T07:27:09.339Z,56.90
2018-04-11T07:29:37.093Z,54.20
2018-04-11T07:32:04.718Z,54.62
2018-04-11T07:34:32.348Z,53.52
2018-04-11T07:37:00.015Z,55.00
2018-04-11T07:39:28.313Z,54.71
2018-04-11T07:41:56.251Z,54.29
2018-04-11T07:44:23.878Z,54.95
2018-04-11T07:46:51.524Z,53.99
2018-04-11T07:49:19.143Z,53.15
2018-04-11T07:51:46.770Z,52.91
2018-04-11T07:54:14.455Z,49.06
2018-04-11T07:56:42.060Z,48.21
2018-04-11T07:59:09.762Z,47.43
2018-04-11T08:01:37.384Z,48.05
2018-04-11T08:04:05.032Z,48.45
2018-04-11T08:06:32.616Z,48.53
2018-04-11T08:09:00.243Z,48.85
2018-04-11T08:11:27.901Z,47.74
2018-04-11T08:13:55.560Z,47.32
2018-04-11T08:16:24.009Z,44.96
2018-04-11T08:18:51.665Z,44.55
2018-04-11T08:21:19.368Z,44.37
2018-04-11T08:23:46.695Z,44.79
2018-04-11T08:26:14.458Z,44.96
2018-04-11T08:28:42.169Z,44.13
2018-04-11T08:31:09.847Z,42.74
2018-04-11T08:33:37.497Z,42.66
2018-04-11T08:36:05.157Z,42.49
2018-04-11T08:38:32.827Z,41.54
2018-04-11T08:41:00.450Z,41.60
2018-04-11T08:43:28.131Z,41.74
2018-04-11T08:45:55.815Z,41.53
2018-04-11T08:48:23.405Z,37.42
2018-04-11T08:50:51.708Z,39.11
2018-04-11T08:53:19.425Z,38.96
2018-04-11T08:55:47.034Z,39.75
2018-04-11T08:58:14.701Z,40.05
2018-04-11T09:00:42.350Z,38.03
2018-04-11T09:03:09.943Z,36.88
2018-04-11T09:05:37.656Z,38.60
2018-04-11T09:08:05.343Z,36.11
2018-04-11T09:10:32.960Z,35.99
2018-04-11T09:13:00.626Z,34.72
2018-04-11T09:15:28.219Z,34.44
2018-04-11T09:17:55.878Z,36.39
2018-04-11T09:20:23.840Z,35.28
2018-04-11T09:22:51.485Z,34.73
2018-04-11T09:25:19.124Z,32.55
2018-04-11T09:27:47.033Z,31.23
2018-04-11T09:30:14.694Z,33.72
2018-04-11T09:32:42.392Z,32.15
2018-04-11T09:35:10.024Z,32.28
2018-04-11T09:37:37.746Z,32.20
2018-04-11T09:40:05.733Z,32.55
2018-04-11T09:42:33.598Z,32.00
2018-04-11T09:45:01.175Z,30.94
2018-04-11T09:47:28.836Z,32.49
2018-04-11T09:49:56.450Z,31.07
2018-04-11T09:52:24.156Z,30.99
2018-04-11T09:54:51.745Z,32.85
2018-04-11T09:57:19.454Z,31.38
2018-04-11T09:59:47.126Z,28.89
2018-04-11T10:02:20.171Z,31.14
2018-04-11T10:04:47.781Z,31.55
2018-04-11T10:07:15.432Z,31.43
2018-04-11T10:09:43.142Z,30.62
2018-04-11T10:12:10.801Z,32.54
2018-04-11T10:14:38.599Z,31.21
2018-04-11T10:17:06.279Z,29.29
2018-04-11T10:19:33.968Z,30.76
2018-04-11T10:22:01.674Z,29.80
2018-04-11T10:24:29.343Z,29.23
2018-04-11T10:26:57.000Z,29.81
2018-04-11T10:29:24.671Z,29.28
2018-04-11T10:31:52.360Z,29.33
2018-04-11T10:34:20.015Z,29.71
2018-04-11T10:36:47.666Z,28.92
2018-04-11T10:39:15.266Z,29.09
2018-04-11T10:41:42.972Z,29.46
2018-04-11T10:44:10.636Z,28.42
2018-04-11T10:46:38.241Z,28.01
2018-04-11T10:49:05.891Z,26.42
2018-04-11T10:51:33.473Z,26.40
2018-04-11T10:54:01.132Z,26.17
2018-04-11T10:56:28.791Z,25.46
2018-04-11T10:58:56.395Z,26.81
2018-04-11T11:01:24.050Z,27.22
2018-04-11T11:03:52.691Z,27.44
2018-04-11T11:06:20.305Z,27.81
2018-04-11T11:08:47.952Z,28.12
2018-04-11T11:11:15.561Z,26.98
2018-04-11T11:13:43.264Z,27.58
2018-04-11T11:16:10.868Z,28.06
2018-04-11T11:18:38.527Z,28.71
2018-04-11T11:21:06.219Z,27.89
2018-04-11T11:23:33.940Z,28.07
2018-04-11T11:26:01.610Z,27.92
2018-04-11T11:28:29.252Z,30.17
2018-04-11T11:30:57.074Z,27.78
2018-04-11T11:33:24.661Z,27.29
2018-04-11T11:35:52.547Z,29.07
2018-04-11T11:38:20.212Z,29.42
2018-04-11T11:40:47.797Z,28.64
2018-04-11T11:43:15.432Z,28.70
2018-04-11T11:45:43.111Z,28.67
2018-04-11T11:48:10.757Z,29.95
2018-04-11T11:50:38.529Z,29.46
2018-04-11T11:53:06.141Z,29.75
2018-04-11T11:55:35.148Z,31.24
2018-04-11T11:58:02.833Z,30.96
2018-04-11T12:00:30.486Z,31.22
2018-04-11T12:02:58.199Z,32.25
2018-04-11T12:05:25.807Z,30.98
2018-04-11T12:07:53.526Z,30.15
2018-04-11T12:10:21.379Z,32.30
2018-04-11T12:12:49.030Z,32.10
2018-04-11T12:15:16.642Z,32.02
2018-04-11T12:17:44.374Z,31.31
2018-04-11T12:20:12.202Z,31.26
2018-04-11T12:22:39.844Z,31.28
2018-04-11T12:25:07.471Z,30.44
2018-04-11T12:27:35.199Z,31.30
2018-04-11T12:30:03.930Z,32.15
2018-04-11T12:32:31.632Z,32.35
2018-04-11T12:34:59.220Z,32.56
2018-04-11T12:37:26.922Z,32.24
2018-04-11T12:39:54.590Z,30.69
2018-04-11T12:42:22.269Z,31.33
2018-04-11T12:44:49.890Z,31.76
2018-04-11T12:47:19.371Z,32.34
2018-04-11T12:49:46.987Z,31.25
2018-04-11T12:52:14.730Z,31.85
2018-04-11T12:54:42.410Z,32.89
2018-04-11T12:57:10.074Z,33.01
2018-04-11T12:59:37.768Z,32.77
2018-04-11T13:02:05.528Z,32.85
2018-04-11T13:04:33.176Z,32.13
2018-04-11T13:07:00.806Z,32.68
2018-04-11T13:09:28.490Z,33.66
2018-04-11T13:11:56.162Z,32.65
2018-04-11T13:14:23.919Z,32.17
2018-04-11T13:16:51.534Z,32.34
2018-04-11T13:19:19.746Z,32.30
2018-04-11T13:21:48.418Z,32.69
2018-04-11T13:24:16.093Z,32.02
2018-04-11T13:26:43.700Z,32.73
2018-04-11T13:29:11.372Z,33.23
2018-04-11T13:31:39.068Z,33.22
2018-04-11T13:34:06.831Z,32.41
2018-04-11T13:36:34.757Z,33.75
2018-04-11T13:39:02.452Z,33.42
2018-04-11T13:41:30.368Z,33.71
2018-04-11T13:43:58.376Z,32.43
2018-04-11T13:46:26.041Z,33.70
2018-04-11T13:48:53.935Z,33.88
2018-04-11T13:51:21.628Z,35.10
2018-04-11T13:53:49.299Z,33.08
2018-04-11T13:56:17.684Z,32.93
2018-04-11T13:58:45.399Z,34.14
2018-04-11T14:01:13.314Z,33.68
2018-04-11T14:03:40.995Z,32.66
2018-04-11T14:06:08.744Z,32.76
2018-04-11T14:08:36.406Z,32.81
2018-04-11T14:11:04.239Z,31.59
2018-04-11T14:13:31.981Z,32.03
2018-04-11T14:15:59.697Z,32.72
2018-04-11T14:18:27.322Z,32.14
2018-04-11T14:20:54.979Z,32.44
2018-04-11T14:23:22.687Z,32.22
2018-04-11T14:25:50.435Z,32.15
2018-04-11T14:28:18.113Z,31.81
2018-04-11T14:30:46.642Z,32.43
2018-04-11T14:33:14.380Z,31.86
2018-04-11T14:35:42.097Z,31.72
2018-04-11T14:38:09.795Z,32.84
2018-04-11T14:40:37.473Z,32.37
2018-04-11T14:43:05.153Z,31.80
2018-04-11T14:45:32.948Z,32.47
2018-04-11T14:48:00.609Z,31.38
2018-04-11T14:50:28.273Z,31.88
2018-04-11T14:52:55.929Z,32.90
2018-04-11T14:55:23.581Z,32.57
2018-04-11T14:57:51.248Z,32.29
2018-04-11T15:00:18.852Z,32.26
2018-04-11T15:02:47.355Z,33.43
2018-04-11T15:05:15.000Z,33.56
2018-04-11T15:07:43.609Z,33.08
2018-04-11T15:10:11.273Z,34.37
2018-04-11T15:12:39.686Z,33.40
2018-04-11T15:15:07.412Z,33.85
2018-04-11T15:17:35.206Z,31.73
2018-04-11T15:20:02.934Z,33.57
2018-04-11T15:22:30.551Z,34.66
2018-04-11T15:24:58.232Z,33.54
2018-04-11T15:27:25.885Z,34.09
2018-04-11T15:29:53.539Z,34.05
2018-04-11T15:32:21.898Z,33.63
2018-04-11T15:34:49.510Z,33.02
2018-04-11T15:37:17.169Z,34.15
2018-04-11T15:39:44.801Z,33.73
2018-04-11T15:42:12.489Z,34.02
2018-04-11T15:44:40.230Z,33.95
2018-04-11T15:47:07.928Z,35.09
2018-04-11T15:49:35.618Z,35.57
2018-04-11T15:52:04.156Z,35.76
2018-04-11T15:54:32.746Z,36.11
2018-04-11T15:57:00.413Z,35.70
2018-04-11T15:59:28.860Z,35.07
2018-04-11T16:01:56.521Z,36.25
2018-04-11T16:04:24.130Z,35.82
2018-04-11T16:06:51.960Z,35.84
2018-04-11T16:09:19.606Z,36.07
2018-04-11T16:11:47.273Z,36.24
2018-04-11T16:14:15.215Z,35.52
2018-04-11T16:16:43.762Z,36.98
2018-04-11T16:19:11.425Z,37.94
2018-04-11T16:21:39.192Z,37.21
2018-04-11T16:24:06.946Z,38.25
2018-04-11T16:26:34.692Z,37.41
2018-04-11T16:29:02.516Z,38.19
2018-04-11T16:31:30.252Z,38.92
2018-04-11T16:33:58.031Z,37.96
2018-04-11T16:36:25.827Z,38.25
2018-04-11T16:38:53.450Z,38.11
2018-04-11T16:41:21.801Z,37.02
2018-04-11T16:43:49.516Z,37.91
2018-04-11T16:46:17.157Z,37.73
2018-04-11T16:48:44.917Z,39.24
2018-04-11T16:51:12.992Z,37.55
2018-04-11T16:53:40.768Z,37.82
2018-04-11T16:56:09.010Z,37.77
2018-04-11T16:58:36.732Z,39.33
2018-04-11T17:01:06.000Z,39.32
2018-04-11T17:03:34.208Z,38.00
2018-04-11T17:06:01.880Z,39.45
2018-04-11T17:08:30.583Z,39.43
2018-04-11T17:10:58.301Z,40.67
2018-04-11T17:13:26.041Z,39.98
2018-04-11T17:15:53.979Z,43.21
2018-04-11T17:18:21.697Z,45.24
2018-04-11T17:21:00.973Z,46.77
2018-04-11T17:23:41.744Z,47.22
2018-04-11T17:26:21.341Z,48.34
2018-04-11T17:29:01.147Z,48.98
2018-04-11T17:31:30.752Z,49.55
2018-04-11T17:33:58.546Z,49.79
2018-04-11T17:36:26.635Z,49.75
2018-04-11T17:38:54.606Z,49.82
2018-04-11T17:41:22.511Z,49.70
2018-04-11T17:43:50.233Z,50.40
2018-04-11T17:46:18.597Z,50.43
2018-04-11T17:48:46.382Z,50.57
2018-04-11T17:51:14.160Z,50.59
2018-04-11T17:53:42.063Z,51.16
2018-04-11T17:56:10.667Z,51.10
2018-04-11T17:58:38.629Z,51.44
2018-04-11T18:01:07.511Z,51.98
2018-04-11T18:03:35.331Z,52.20
2018-04-11T18:06:03.064Z,52.07
2018-04-11T18:08:30.808Z,52.00
2018-04-11T18:10:58.493Z,52.45
2018-04-11T18:13:26.524Z,52.93
2018-04-11T18:15:54.491Z,53.40
2018-04-11T18:18:22.414Z,52.92
2018-04-11T18:20:50.192Z,53.13
2018-04-11T18:23:17.959Z,53.15
2018-04-11T18:25:45.831Z,52.62
2018-04-11T18:28:14.652Z,53.05
2018-04-11T18:30:42.409Z,53.08
2018-04-11T18:33:10.248Z,52.62
2018-04-11T18:35:37.982Z,52.50
2018-04-11T18:38:05.767Z,52.41
2018-04-11T18:40:34.924Z,53.00
2018-04-11T18:43:02.678Z,53.14
2018-04-11T18:45:31.216Z,52.99
2018-04-11T18:47:58.893Z,54.17
2018-04-11T18:50:26.608Z,54.20
2018-04-11T18:52:54.210Z,54.17
2018-04-11T18:55:22.057Z,55.24
2018-04-11T18:57:50.661Z,54.04
2018-04-11T19:00:18.350Z,54.24
2018-04-11T19:02:46.712Z,54.07
2018-04-11T19:05:14.521Z,54.26
2018-04-11T19:07:42.812Z,55.00
2018-04-11T19:10:10.570Z,55.71
2018-04-11T19:12:38.267Z,56.35
2018-04-11T19:15:05.914Z,56.54
2018-04-11T19:17:34.800Z,56.89
2018-04-11T19:20:02.506Z,57.38
2018-04-11T19:22:30.182Z,58.03
2018-04-11T19:24:57.923Z,58.17
2018-04-11T19:27:25.641Z,58.05
2018-04-11T19:29:53.351Z,57.91
2018-04-11T19:32:21.030Z,57.59
2018-04-11T19:34:49.461Z,56.07
2018-04-11T19:37:17.218Z,56.33
2018-04-11T19:39:44.960Z,57.25
2018-04-11T19:42:12.709Z,57.54
2018-04-11T19:44:40.392Z,57.19
2018-04-11T19:47:08.175Z,58.48
2018-04-11T19:49:35.872Z,58.94
2018-04-11T19:52:03.643Z,58.36
2018-04-11T19:54:31.274Z,58.51
2018-04-11T19:56:59.065Z,58.04
2018-04-11T19:59:28.239Z,57.96
2018-04-11T20:01:55.863Z,56.48
2018-04-11T20:04:23.785Z,56.69
2018-04-11T20:06:51.695Z,56.40
2018-04-11T20:09:19.313Z,56.07
2018-04-11T20:11:48.067Z,56.26
2018-04-11T20:14:15.823Z,56.67
2018-04-11T20:16:43.550Z,56.12
2018-04-11T20:19:11.593Z,56.54
2018-04-11T20:21:39.247Z,57.58
2018-04-11T20:24:06.955Z,57.22
2018-04-11T20:26:34.671Z,58.10
2018-04-11T20:29:02.310Z,58.34
2018-04-11T20:31:29.979Z,56.89
2018-04-11T20:33:57.721Z,58.00
2018-04-11T20:36:25.420Z,58.81
2018-04-11T20:38:53.102Z,58.60
2018-04-11T20:41:20.806Z,58.67
2018-04-11T20:43:48.671Z,57.53
2018-04-11T20:46:16.329Z,57.17
2018-04-11T20:48:43.983Z,57.03
2018-04-11T20:51:11.683Z,57.61
2018-04-11T20:53:39.365Z,57.43
2018-04-11T20:56:07.146Z,58.17
2018-04-11T20:58:34.759Z,57.74
2018-04-11T21:01:02.880Z,58.40
2018-04-11T21:03:30.547Z,58.81
2018-04-11T21:05:58.269Z,58.43
2018-04-11T21:08:25.903Z,58.49
2018-04-11T21:10:53.585Z,59.34
2018-04-11T21:13:21.225Z,58.70
2018-04-11T21:15:48.932Z,59.77
2018-04-11T21:18:16.583Z,61.21
2018-04-11T21:20:44.233Z,60.69
2018-04-11T21:23:11.997Z,60.78
2018-04-11T21:25:39.694Z,61.43
2018-04-11T21:28:07.328Z,60.82
2018-04-11T21:30:34.952Z,60.32
2018-04-11T21:33:02.746Z,59.89
2018-04-11T21:35:30.377Z,60.01
2018-04-11T21:37:58.064Z,59.83
2018-04-11T21:40:25.725Z,61.06
2018-04-11T21:42:53.340Z,60.52
2018-04-11T21:45:21.028Z,59.29
2018-04-11T21:47:48.679Z,60.17
2018-04-11T21:50:16.329Z,59.81
2018-04-11T21:52:43.988Z,60.62
2018-04-11T21:55:11.613Z,60.63
2018-04-11T21:57:39.271Z,59.72
2018-04-11T22:00:06.986Z,59.54
2018-04-11T22:02:34.617Z,60.58
2018-04-11T22:05:02.204Z,60.51
2018-04-11T22:07:29.851Z,60.77
2018-04-11T22:09:57.499Z,61.43
2018-04-11T22:12:25.274Z,61.09
2018-04-11T22:14:53.511Z,60.89
2018-04-11T22:17:21.163Z,61.18
2018-04-11T22:19:48.785Z,60.55
2018-04-11T22:22:16.446Z,60.57
2018-04-11T22:24:44.037Z,57.04
2018-04-11T22:27:11.812Z,60.13
2018-04-11T22:29:39.416Z,62.07
2018-04-11T22:32:07.030Z,58.97
2018-04-11T22:34:34.671Z,60.58
2018-04-11T22:37:02.329Z,61.27
2018-04-11T22:39:30.004Z,61.54
2018-04-11T22:41:57.600Z,61.15
2018-04-11T22:44:25.306Z,63.16
2018-04-11T22:46:52.939Z,62.36
2018-04-11T22:49:20.618Z,62.19
2018-04-11T22:51:48.223Z,61.89
2018-04-11T22:54:15.913Z,62.07
2018-04-11T22:56:43.894Z,61.90
2018-04-11T22:59:11.677Z,59.89
2018-04-11T23:01:39.345Z,61.57
2018-04-11T23:04:06.929Z,62.32
2018-04-11T23:06:34.596Z,63.05
2018-04-11T23:09:02.248Z,61.54
2018-04-11T23:11:29.926Z,61.58
2018-04-11T23:13:57.650Z,61.13
2018-04-11T23:16:25.279Z,61.67
2018-04-11T23:18:52.896Z,63.26
2018-04-11T23:21:20.530Z,61.43
2018-04-11T23:23:48.188Z,59.86
2018-04-11T23:26:15.867Z,61.62
2018-04-11T23:28:43.478Z,61.91
2018-04-11T23:31:11.143Z,61.71
2018-04-11T23:33:38.762Z,58.61
2018-04-11T23:36:06.420Z,58.58
2018-04-11T23:38:34.047Z,59.06
2018-04-11T23:41:01.690Z,61.60
2018-04-11T23:43:29.356Z,62.21
2018-04-11T23:45:56.972Z,62.11
2018-04-11T23:48:24.905Z,61.96
2018-04-11T23:50:52.516Z,62.51
2018-04-11T23:53:20.149Z,62.03
2018-04-11T23:55:47.800Z,61.09
2018-04-11T23:58:15.475Z,59.49
